createdAt,value
2023-05-04T00:00:54.308Z,10.54
2023-05-04T00:03:23.000Z,10.62
2023-05-04T00:05:51.197Z,10.56
2023-05-04T00:08:20.749Z,10.49
2023-05-04T00:10:48.866Z,10.57
2023-05-04T00:13:16.930Z,10.60
2023-05-04T00:15:45.093Z,10.58
2023-05-04T00:18:13.307Z,10.57
2023-05-04T00:20:42.391Z,10.59
2023-05-04T00:23:10.518Z,10.68
2023-05-04T00:25:39.990Z,10.52
2023-05-04T00:28:08.175Z,10.49
2023-05-04T00:30:36.240Z,10.52
2023-05-04T00:33:04.354Z,10.55
2023-05-04T00:35:32.754Z,10.52
2023-05-04T00:38:00.895Z,10.44
2023-05-04T00:40:29.075Z,10.41
2023-05-04T00:42:58.636Z,10.45
2023-05-04T00:45:26.722Z,10.42
2023-05-04T00:47:55.402Z,10.38
2023-05-04T00:50:23.759Z,10.51
2023-05-04T00:52:54.018Z,10.44
2023-05-04T00:55:22.839Z,10.41
2023-05-04T00:57:51.993Z,10.36
2023-05-04T01:00:21.867Z,10.53
2023-05-04T01:02:50.813Z,10.50
2023-05-04T01:05:18.948Z,10.55
2023-05-04T01:07:57.566Z,10.43
2023-05-04T01:10:31.176Z,10.46
2023-05-04T01:13:06.583Z,10.40
2023-05-04T01:15:36.587Z,10.48
2023-05-04T01:18:04.909Z,10.42
2023-05-04T01:20:34.378Z,10.46
2023-05-04T01:23:04.400Z,10.47
2023-05-04T01:25:43.765Z,10.41
2023-05-04T01:28:18.734Z,10.45
2023-05-04T01:30:51.405Z,10.49
2023-05-04T01:33:21.210Z,10.46
2023-05-04T01:35:50.724Z,10.39
2023-05-04T01:38:20.196Z,10.40
2023-05-04T01:40:48.250Z,10.38
2023-05-04T01:43:16.294Z,10.41
2023-05-04T01:45:44.467Z,10.33
2023-05-04T01:48:12.480Z,10.34
2023-05-04T01:50:41.247Z,10.39
2023-05-04T01:53:09.332Z,10.42
2023-05-04T01:55:38.823Z,10.40
2023-05-04T01:58:06.808Z,10.38
2023-05-04T02:00:34.878Z,10.40
2023-05-04T02:03:03.151Z,10.50
2023-05-04T02:05:31.364Z,10.59
2023-05-04T02:07:59.480Z,10.59
2023-05-04T02:10:27.556Z,10.58
2023-05-04T02:12:57.308Z,10.49
2023-05-04T02:15:25.450Z,10.39
2023-05-04T02:17:53.557Z,10.31
2023-05-04T02:20:22.518Z,10.37
2023-05-04T02:22:50.526Z,10.35
2023-05-04T02:25:19.622Z,10.28
2023-05-04T02:27:47.718Z,10.35
2023-05-04T02:30:17.482Z,10.34
2023-05-04T02:32:45.639Z,10.38
2023-05-04T02:35:14.146Z,10.39
2023-05-04T02:37:42.314Z,10.34
2023-05-04T02:40:12.535Z,10.41
2023-05-04T02:42:40.588Z,10.38
2023-05-04T02:45:09.829Z,10.41
2023-05-04T02:47:39.339Z,10.34
2023-05-04T02:50:11.372Z,10.32
2023-05-04T02:52:39.558Z,10.18
2023-05-04T02:55:08.096Z,10.18
2023-05-04T02:57:36.351Z,10.09
2023-05-04T03:00:06.904Z,10.02
2023-05-04T03:02:35.875Z,9.98
2023-05-04T03:05:05.844Z,9.97
2023-05-04T03:07:33.960Z,9.98
2023-05-04T03:10:02.071Z,9.91
2023-05-04T03:12:30.189Z,9.95
2023-05-04T03:14:58.964Z,9.88
2023-05-04T03:17:27.054Z,9.91
2023-05-04T03:19:55.257Z,9.92
2023-05-04T03:22:25.328Z,10.00
2023-05-04T03:24:53.519Z,9.98
2023-05-04T03:27:21.647Z,9.98
2023-05-04T03:29:49.913Z,9.96
2023-05-04T03:32:18.118Z,9.91
2023-05-04T03:34:47.008Z,9.95
2023-05-04T03:37:15.148Z,9.93
2023-05-04T03:39:44.651Z,9.94
2023-05-04T03:42:13.236Z,9.97
2023-05-04T03:44:42.760Z,9.98
2023-05-04T03:47:10.890Z,9.99
2023-05-04T03:49:39.196Z,10.01
2023-05-04T03:52:07.452Z,10.01
2023-05-04T03:54:35.605Z,10.00
2023-05-04T03:57:05.631Z,9.98
2023-05-04T03:59:33.712Z,10.04
2023-05-04T04:02:02.156Z,10.04
2023-05-04T04:04:30.264Z,10.05
2023-05-04T04:06:58.271Z,10.05
2023-05-04T04:09:26.396Z,10.02
2023-05-04T04:11:54.563Z,10.04
2023-05-04T04:14:24.677Z,10.06
2023-05-04T04:16:52.876Z,10.10
2023-05-04T04:19:21.425Z,10.16
2023-05-04T04:21:50.313Z,10.20
2023-05-04T04:24:18.624Z,10.30
2023-05-04T04:26:46.999Z,10.29
2023-05-04T04:29:15.152Z,10.19
2023-05-04T04:31:44.691Z,10.37
2023-05-04T04:34:12.700Z,10.34
2023-05-04T04:36:40.810Z,10.47
2023-05-04T04:39:09.156Z,10.35
2023-05-04T04:41:37.275Z,10.22
2023-05-04T04:44:05.866Z,10.30
2023-05-04T04:46:34.108Z,10.43
2023-05-04T04:49:03.664Z,10.49
2023-05-04T04:51:31.885Z,10.39
2023-05-04T04:54:00.470Z,10.29
2023-05-04T04:56:28.675Z,10.42
2023-05-04T04:59:02.543Z,10.43
2023-05-04T05:01:31.612Z,10.41
2023-05-04T05:03:59.650Z,10.43
2023-05-04T05:06:29.199Z,10.56
2023-05-04T05:08:57.287Z,10.48
2023-05-04T05:11:25.485Z,10.45
2023-05-04T05:13:53.541Z,10.56
2023-05-04T05:16:21.795Z,10.47
2023-05-04T05:18:49.962Z,10.47
2023-05-04T05:21:18.538Z,10.57
2023-05-04T05:23:48.228Z,10.62
2023-05-04T05:26:16.445Z,10.61
2023-05-04T05:28:44.649Z,10.58
2023-05-04T05:31:12.806Z,10.65
2023-05-04T05:33:41.967Z,10.66
2023-05-04T05:36:10.356Z,10.68
2023-05-04T05:38:38.661Z,10.66
2023-05-04T05:41:09.816Z,10.77
2023-05-04T05:43:39.073Z,10.68
2023-05-04T05:46:08.132Z,10.70
2023-05-04T05:48:36.346Z,10.70
2023-05-04T05:51:04.969Z,10.72
2023-05-04T05:53:33.099Z,10.75
2023-05-04T05:56:01.322Z,10.90
2023-05-04T05:58:30.895Z,10.86
2023-05-04T06:00:59.280Z,10.92
2023-05-04T06:03:28.037Z,10.89
2023-05-04T06:05:56.578Z,10.92
2023-05-04T06:08:24.645Z,10.86
2023-05-04T06:10:54.667Z,10.84
2023-05-04T06:13:22.836Z,10.86
2023-05-04T06:15:56.384Z,10.80
2023-05-04T06:18:24.905Z,10.94
2023-05-04T06:20:59.606Z,10.88
2023-05-04T06:23:29.338Z,10.83
2023-05-04T06:25:57.462Z,10.79
2023-05-04T06:28:25.820Z,10.79
2023-05-04T06:30:55.725Z,10.89
2023-05-04T06:33:24.216Z,11.06
2023-05-04T06:35:53.222Z,10.92
2023-05-04T06:38:21.992Z,10.94
2023-05-04T06:40:50.282Z,10.96
2023-05-04T06:43:18.522Z,11.18
2023-05-04T06:45:46.821Z,11.28
2023-05-04T06:48:17.211Z,11.30
2023-05-04T06:50:45.414Z,11.37
2023-05-04T06:53:13.539Z,11.46
2023-05-04T06:55:41.568Z,11.74
2023-05-04T06:58:09.660Z,11.68
2023-05-04T07:00:38.065Z,11.63
2023-05-04T07:03:09.471Z,11.63
2023-05-04T07:05:39.657Z,11.64
2023-05-04T07:08:08.146Z,11.78
2023-05-04T07:10:37.779Z,11.91
2023-05-04T07:13:06.084Z,11.82
2023-05-04T07:15:34.884Z,11.96
2023-05-04T07:18:03.000Z,11.95
2023-05-04T07:20:31.703Z,11.84
2023-05-04T07:23:01.235Z,11.69
2023-05-04T07:25:32.369Z,11.63
2023-05-04T07:28:01.187Z,11.61
2023-05-04T07:30:32.419Z,11.78
2023-05-04T07:33:00.809Z,11.83
2023-05-04T07:35:29.440Z,11.83
2023-05-04T07:37:58.151Z,11.70
2023-05-04T07:40:28.584Z,12.16
2023-05-04T07:42:57.792Z,12.58
2023-05-04T07:45:26.849Z,12.59
2023-05-04T07:47:55.550Z,12.80
2023-05-04T07:50:23.877Z,12.72
2023-05-04T07:52:52.827Z,12.73
2023-05-04T07:55:21.102Z,12.98
2023-05-04T07:57:50.831Z,13.10
2023-05-04T08:00:20.265Z,13.02
2023-05-04T08:02:48.590Z,13.09
2023-05-04T08:05:17.017Z,12.99
2023-05-04T08:07:46.341Z,12.82
2023-05-04T08:10:14.441Z,12.81
2023-05-04T08:12:43.821Z,12.81
2023-05-04T08:15:14.860Z,12.77
2023-05-04T08:17:44.214Z,12.71
2023-05-04T08:20:13.858Z,12.77
2023-05-04T08:22:41.967Z,12.61
2023-05-04T08:25:10.701Z,12.67
2023-05-04T08:27:38.830Z,12.87
2023-05-04T08:30:08.640Z,13.00
2023-05-04T08:32:38.176Z,12.88
2023-05-04T08:35:07.312Z,12.72
2023-05-04T08:37:35.658Z,12.63
2023-05-04T08:40:04.879Z,12.84
2023-05-04T08:42:34.762Z,13.08
2023-05-04T08:45:03.129Z,13.19
2023-05-04T08:47:31.346Z,13.35
2023-05-04T08:50:01.153Z,13.47
2023-05-04T08:52:29.763Z,13.53
2023-05-04T08:54:59.702Z,13.35
2023-05-04T08:57:28.532Z,12.94
2023-05-04T08:59:58.062Z,12.88
2023-05-04T09:02:27.461Z,13.14
2023-05-04T09:04:55.740Z,13.01
2023-05-04T09:07:25.328Z,13.16
2023-05-04T09:09:54.068Z,13.17
2023-05-04T09:12:22.213Z,13.24
2023-05-04T09:14:50.464Z,13.37
2023-05-04T09:17:25.798Z,13.07
2023-05-04T09:20:02.366Z,12.71
2023-05-04T09:22:32.335Z,12.42
2023-05-04T09:25:11.847Z,12.34
2023-05-04T09:27:41.870Z,12.38
2023-05-04T09:30:11.423Z,12.35
2023-05-04T09:32:47.354Z,12.29
2023-05-04T09:35:29.145Z,12.45
2023-05-04T09:38:01.854Z,12.49
2023-05-04T09:40:33.795Z,12.62
2023-05-04T09:43:02.161Z,12.83
2023-05-04T09:45:41.333Z,13.04
2023-05-04T09:48:20.504Z,13.11
2023-05-04T09:50:57.113Z,13.21
2023-05-04T09:53:28.132Z,13.28
2023-05-04T09:56:08.496Z,13.39
2023-05-04T09:58:37.075Z,13.33
2023-05-04T10:01:06.218Z,13.29
2023-05-04T10:03:34.507Z,13.07
2023-05-04T10:06:05.850Z,12.89
2023-05-04T10:08:35.696Z,12.91
2023-05-04T10:11:03.762Z,12.97
2023-05-04T10:13:31.903Z,12.86
2023-05-04T10:16:16.366Z,12.97
2023-05-04T10:19:05.419Z,12.89
2023-05-04T10:21:45.417Z,12.93
2023-05-04T10:24:38.464Z,13.13
2023-05-04T10:27:12.114Z,13.28
2023-05-04T10:29:41.259Z,13.34
2023-05-04T10:32:20.086Z,13.26
2023-05-04T10:34:48.482Z,13.23
2023-05-04T10:37:22.308Z,13.24
2023-05-04T10:39:55.328Z,13.50
2023-05-04T10:42:23.686Z,13.53
2023-05-04T10:44:55.228Z,13.80
2023-05-04T10:47:32.639Z,14.11
2023-05-04T10:50:05.633Z,14.19
2023-05-04T10:52:34.313Z,14.26
2023-05-04T10:55:07.304Z,14.51
2023-05-04T10:57:35.620Z,14.55
2023-05-04T11:00:04.488Z,14.80
2023-05-04T11:02:34.289Z,14.90
2023-05-04T11:05:04.552Z,14.96
2023-05-04T11:07:37.966Z,15.05
2023-05-04T11:10:09.807Z,15.02
2023-05-04T11:12:39.802Z,14.94
2023-05-04T11:15:11.316Z,14.78
2023-05-04T11:17:47.640Z,14.37
2023-05-04T11:20:23.726Z,14.20
2023-05-04T11:22:53.118Z,14.33
2023-05-04T11:25:30.088Z,14.45
2023-05-04T11:28:00.876Z,14.54
2023-05-04T11:30:33.769Z,14.90
2023-05-04T11:33:03.058Z,15.22
2023-05-04T11:35:31.324Z,15.24
2023-05-04T11:37:59.605Z,15.20
2023-05-04T11:40:29.225Z,15.03
2023-05-04T11:42:59.893Z,15.26
2023-05-04T11:45:31.059Z,15.32
2023-05-04T11:47:59.662Z,15.30
2023-05-04T11:50:29.204Z,15.06
2023-05-04T11:53:06.824Z,15.08
2023-05-04T11:55:37.574Z,15.09
2023-05-04T11:58:07.206Z,15.14
2023-05-04T12:00:38.924Z,15.39
2023-05-04T12:03:08.361Z,15.49
2023-05-04T12:05:38.027Z,15.55
2023-05-04T12:08:07.594Z,15.33
2023-05-04T12:10:37.181Z,15.21
2023-05-04T12:13:16.275Z,15.31
2023-05-04T12:15:45.108Z,15.31
2023-05-04T12:18:22.205Z,15.23
2023-05-04T12:20:51.310Z,15.23
2023-05-04T12:23:19.550Z,15.38
2023-05-04T12:25:57.709Z,15.34
2023-05-04T12:28:27.853Z,15.43
2023-05-04T12:30:56.527Z,15.39
2023-05-04T12:33:24.818Z,15.48
2023-05-04T12:35:53.769Z,15.37
2023-05-04T12:38:22.022Z,15.17
2023-05-04T12:40:52.385Z,15.32
2023-05-04T12:43:23.160Z,15.34
2023-05-04T12:45:51.958Z,15.40
2023-05-04T12:48:21.658Z,15.32
2023-05-04T12:50:51.105Z,15.45
2023-05-04T12:53:21.948Z,15.39
2023-05-04T12:55:51.530Z,15.24
2023-05-04T12:58:19.885Z,15.25
2023-05-04T13:00:48.066Z,15.15
2023-05-04T13:03:17.836Z,15.21
2023-05-04T13:05:47.400Z,15.37
2023-05-04T13:08:15.578Z,15.56
2023-05-04T13:10:43.738Z,15.78
2023-05-04T13:13:13.388Z,15.84
2023-05-04T13:15:41.881Z,15.90
2023-05-04T13:18:10.067Z,15.87
2023-05-04T13:20:39.649Z,15.76
2023-05-04T13:23:08.257Z,15.66
2023-05-04T13:25:38.766Z,15.56
2023-05-04T13:28:07.109Z,15.52
2023-05-04T13:30:36.790Z,15.44
2023-05-04T13:33:16.784Z,15.52
2023-05-04T13:35:57.068Z,15.67
2023-05-04T13:38:25.570Z,15.86
2023-05-04T13:40:54.299Z,16.15
2023-05-04T13:43:23.259Z,16.22
2023-05-04T13:45:53.528Z,16.18
2023-05-04T13:48:21.635Z,16.31
2023-05-04T13:50:49.670Z,16.21
2023-05-04T13:53:17.846Z,16.17
2023-05-04T13:55:46.216Z,16.16
2023-05-04T13:58:14.279Z,16.27
2023-05-04T14:00:43.372Z,16.43
2023-05-04T14:03:13.145Z,16.46
2023-05-04T14:05:41.915Z,16.34
2023-05-04T14:08:10.014Z,16.33
2023-05-04T14:10:38.522Z,16.26
2023-05-04T14:13:07.592Z,16.23
2023-05-04T14:15:36.802Z,16.19
2023-05-04T14:18:05.237Z,16.28
2023-05-04T14:20:35.267Z,16.27
2023-05-04T14:23:03.321Z,16.18
2023-05-04T14:25:31.514Z,16.04
2023-05-04T14:27:59.753Z,16.01
2023-05-04T14:30:27.969Z,15.96
2023-05-04T14:32:57.320Z,15.57
2023-05-04T14:35:25.698Z,15.76
2023-05-04T14:37:55.221Z,15.77
2023-05-04T14:40:23.378Z,15.81
2023-05-04T14:42:51.812Z,15.76
2023-05-04T14:45:20.475Z,15.54
2023-05-04T14:47:48.589Z,15.45
2023-05-04T14:50:16.697Z,15.44
2023-05-04T14:52:45.042Z,15.32
2023-05-04T14:55:15.676Z,15.43
2023-05-04T14:57:44.097Z,15.32
2023-05-04T15:00:13.534Z,15.32
2023-05-04T15:02:41.810Z,15.20
2023-05-04T15:05:12.694Z,15.24
2023-05-04T15:07:41.028Z,15.31
2023-05-04T15:10:10.618Z,15.35
2023-05-04T15:12:41.203Z,15.24
2023-05-04T15:15:10.309Z,15.27
2023-05-04T15:17:38.486Z,15.26
2023-05-04T15:20:07.943Z,15.33
2023-05-04T15:22:36.754Z,15.33
2023-05-04T15:25:05.781Z,15.17
2023-05-04T15:27:33.924Z,15.13
2023-05-04T15:30:03.569Z,15.11
2023-05-04T15:32:31.913Z,14.99
2023-05-04T15:35:05.489Z,15.00
2023-05-04T15:37:34.379Z,14.85
2023-05-04T15:40:03.786Z,14.66
2023-05-04T15:42:32.042Z,14.75
2023-05-04T15:45:00.217Z,14.65
2023-05-04T15:47:29.758Z,14.64
2023-05-04T15:49:59.050Z,14.64
2023-05-04T15:52:27.248Z,14.40
2023-05-04T15:54:56.340Z,14.20
2023-05-04T15:57:24.579Z,14.21
2023-05-04T15:59:52.740Z,14.13
2023-05-04T16:02:21.020Z,14.19
2023-05-04T16:04:50.614Z,14.20
2023-05-04T16:07:18.657Z,14.20
2023-05-04T16:09:47.129Z,14.28
2023-05-04T16:12:15.637Z,14.35
2023-05-04T16:14:43.990Z,14.25
2023-05-04T16:17:12.183Z,14.27
2023-05-04T16:19:40.202Z,14.19
2023-05-04T16:22:09.736Z,14.12
2023-05-04T16:24:38.195Z,14.04
2023-05-04T16:27:07.024Z,14.03
2023-05-04T16:29:35.236Z,14.04
2023-05-04T16:32:03.634Z,13.99
2023-05-04T16:34:31.834Z,14.01
2023-05-04T16:37:00.000Z,14.02
2023-05-04T16:39:31.754Z,13.99
2023-05-04T16:42:00.186Z,14.01
2023-05-04T16:44:28.489Z,13.98
2023-05-04T16:46:56.574Z,14.00
2023-05-04T16:49:24.648Z,14.00
2023-05-04T16:51:53.704Z,14.07
2023-05-04T16:54:22.135Z,14.01
2023-05-04T16:56:52.217Z,14.00
2023-05-04T16:59:20.420Z,13.93
2023-05-04T17:01:48.841Z,13.86
2023-05-04T17:04:17.222Z,13.78
2023-05-04T17:06:45.620Z,13.73
2023-05-04T17:09:13.755Z,13.69
2023-05-04T17:11:41.833Z,13.63
2023-05-04T17:14:11.737Z,13.60
2023-05-04T17:16:40.375Z,13.59
2023-05-04T17:19:11.028Z,13.59
2023-05-04T17:21:39.947Z,13.58
2023-05-04T17:24:09.791Z,13.56
2023-05-04T17:26:37.869Z,13.50
2023-05-04T17:29:06.367Z,13.47
2023-05-04T17:31:35.960Z,13.48
2023-05-04T17:34:04.180Z,13.51
2023-05-04T17:36:32.721Z,13.52
2023-05-04T17:39:00.996Z,13.55
2023-05-04T17:41:29.086Z,13.52
2023-05-04T17:43:57.281Z,13.48
2023-05-04T17:46:26.092Z,13.46
2023-05-04T17:48:56.694Z,13.48
2023-05-04T17:51:29.018Z,13.46
2023-05-04T17:54:12.154Z,13.49
2023-05-04T17:56:40.565Z,13.47
2023-05-04T17:59:08.924Z,13.42
2023-05-04T18:01:37.460Z,13.38
2023-05-04T18:04:07.157Z,13.34
2023-05-04T18:06:35.419Z,13.28
2023-05-04T18:09:04.928Z,13.26
2023-05-04T18:11:33.336Z,13.23
2023-05-04T18:14:02.099Z,13.22
2023-05-04T18:16:33.044Z,13.23
2023-05-04T18:19:01.308Z,13.28
2023-05-04T18:21:32.008Z,13.31
2023-05-04T18:24:04.205Z,13.31
2023-05-04T18:26:33.126Z,13.32
2023-05-04T18:29:11.610Z,13.33
2023-05-04T18:31:47.478Z,13.27
2023-05-04T18:34:17.172Z,13.22
2023-05-04T18:36:48.693Z,13.21
2023-05-04T18:39:17.696Z,13.18
2023-05-04T18:41:46.272Z,13.17
2023-05-04T18:44:15.207Z,13.17
2023-05-04T18:46:43.321Z,13.15
2023-05-04T18:49:11.568Z,13.14
2023-05-04T18:51:41.806Z,13.13
2023-05-04T18:54:17.686Z,13.10
2023-05-04T18:56:45.836Z,13.09
2023-05-04T18:59:14.129Z,13.09
2023-05-04T19:01:42.436Z,13.08
2023-05-04T19:04:10.516Z,13.05
2023-05-04T19:06:38.669Z,13.01
2023-05-04T19:09:08.249Z,12.99
2023-05-04T19:11:37.785Z,12.97
2023-05-04T19:14:06.041Z,12.92
2023-05-04T19:16:36.864Z,12.91
2023-05-04T19:19:05.433Z,12.90
2023-05-04T19:21:33.726Z,12.93
2023-05-04T19:24:02.087Z,12.94
2023-05-04T19:26:30.152Z,12.93
2023-05-04T19:28:59.829Z,12.89
2023-05-04T19:31:27.945Z,12.91
2023-05-04T19:33:56.273Z,12.95
2023-05-04T19:36:25.191Z,12.91
2023-05-04T19:38:53.578Z,12.88
2023-05-04T19:41:22.336Z,12.89
2023-05-04T19:43:50.468Z,12.88
2023-05-04T19:46:20.737Z,12.86
2023-05-04T19:48:52.851Z,12.85
2023-05-04T19:51:21.210Z,12.87
2023-05-04T19:53:49.423Z,12.91
2023-05-04T19:56:17.702Z,12.92
2023-05-04T19:58:48.931Z,12.91
2023-05-04T20:01:17.178Z,12.92
2023-05-04T20:03:47.562Z,12.95
2023-05-04T20:06:16.023Z,13.04
2023-05-04T20:08:44.404Z,13.05
2023-05-04T20:11:14.838Z,13.10
2023-05-04T20:13:45.386Z,13.06
2023-05-04T20:16:14.228Z,13.02
2023-05-04T20:18:42.692Z,13.05
2023-05-04T20:21:15.122Z,12.97
2023-05-04T20:23:45.741Z,12.90
2023-05-04T20:26:15.096Z,12.88
2023-05-04T20:28:44.927Z,12.86
2023-05-04T20:31:13.916Z,12.85
2023-05-04T20:33:42.354Z,12.86
2023-05-04T20:36:12.870Z,12.83
2023-05-04T20:38:41.917Z,12.86
2023-05-04T20:41:27.714Z,12.85
2023-05-04T20:43:55.927Z,12.86
2023-05-04T20:46:24.520Z,12.86
2023-05-04T20:48:52.703Z,12.80
2023-05-04T20:51:23.069Z,12.82
2023-05-04T20:53:51.750Z,12.73
2023-05-04T20:56:20.897Z,12.71
2023-05-04T20:58:49.856Z,12.78
2023-05-04T21:01:25.124Z,12.81
2023-05-04T21:03:55.027Z,12.81
2023-05-04T21:06:26.218Z,12.81
2023-05-04T21:08:54.501Z,12.79
2023-05-04T21:11:22.627Z,12.77
2023-05-04T21:13:50.801Z,12.76
2023-05-04T21:16:19.234Z,12.71
2023-05-04T21:18:47.374Z,12.68
2023-05-04T21:21:16.175Z,12.67
2023-05-04T21:23:46.198Z,12.69
2023-05-04T21:26:14.388Z,12.67
2023-05-04T21:28:42.684Z,12.70
2023-05-04T21:31:11.344Z,12.72
2023-05-04T21:33:39.554Z,12.71
2023-05-04T21:36:14.822Z,12.70
2023-05-04T21:38:43.525Z,12.70
2023-05-04T21:41:14.527Z,12.70
2023-05-04T21:43:43.123Z,12.69
2023-05-04T21:46:12.201Z,12.67
2023-05-04T21:48:40.894Z,12.72
2023-05-04T21:51:09.480Z,12.90
2023-05-04T21:53:37.658Z,12.90
2023-05-04T21:56:08.896Z,12.96
2023-05-04T21:58:40.686Z,12.86
2023-05-04T22:01:09.666Z,12.78
2023-05-04T22:03:38.126Z,12.76
2023-05-04T22:06:06.834Z,12.80
2023-05-04T22:08:34.981Z,12.83
2023-05-04T22:11:03.250Z,12.76
2023-05-04T22:13:31.474Z,12.67
2023-05-04T22:16:00.929Z,12.71
2023-05-04T22:18:29.144Z,12.73
2023-05-04T22:20:57.388Z,12.71
2023-05-04T22:23:25.760Z,12.78
2023-05-04T22:25:53.970Z,12.76
2023-05-04T22:28:22.237Z,12.79
2023-05-04T22:30:50.577Z,12.87
2023-05-04T22:33:20.056Z,12.76
2023-05-04T22:35:48.069Z,12.72
2023-05-04T22:38:16.331Z,12.73
2023-05-04T22:40:44.390Z,12.80
2023-05-04T22:43:12.488Z,12.82
2023-05-04T22:45:41.240Z,12.95
2023-05-04T22:48:10.547Z,13.01
2023-05-04T22:50:40.049Z,12.93
2023-05-04T22:53:08.410Z,12.99
2023-05-04T22:55:36.528Z,13.05
2023-05-04T22:58:04.678Z,13.06
2023-05-04T23:00:32.907Z,13.00
2023-05-04T23:03:01.255Z,12.99
2023-05-04T23:05:29.509Z,12.89
2023-05-04T23:07:59.050Z,12.88
2023-05-04T23:10:28.033Z,12.93
2023-05-04T23:12:56.261Z,12.90
2023-05-04T23:15:26.037Z,12.89
2023-05-04T23:17:54.063Z,12.84
2023-05-04T23:20:22.459Z,12.85
2023-05-04T23:22:50.989Z,12.75
2023-05-04T23:25:20.667Z,12.71
2023-05-04T23:27:48.719Z,12.84
2023-05-04T23:30:18.284Z,12.83
2023-05-04T23:32:46.349Z,12.90
2023-05-04T23:35:15.065Z,12.91
2023-05-04T23:37:43.030Z,12.89
2023-05-04T23:40:12.374Z,12.87
2023-05-04T23:42:41.806Z,12.93
2023-05-04T23:45:10.879Z,12.94
2023-05-04T23:47:39.090Z,12.92
2023-05-04T23:50:08.531Z,12.85
2023-05-04T23:52:36.733Z,12.79
2023-05-04T23:55:05.757Z,12.77
2023-05-04T23:57:33.782Z,12.70
